createdAt,value
2022-10-31T00:01:42.613Z,11.37
2022-10-31T00:04:11.945Z,11.30
2022-10-31T00:06:41.190Z,11.09
2022-10-31T00:09:12.555Z,11.05
2022-10-31T00:11:41.855Z,11.03
2022-10-31T00:14:11.395Z,11.06
2022-10-31T00:16:41.782Z,11.08
2022-10-31T00:19:11.192Z,11.10
2022-10-31T00:21:40.499Z,11.19
2022-10-31T00:24:10.056Z,11.26
2022-10-31T00:26:39.269Z,11.27
2022-10-31T00:29:08.689Z,11.31
2022-10-31T00:31:38.884Z,11.34
2022-10-31T00:34:08.302Z,11.23
2022-10-31T00:36:37.888Z,11.12
2022-10-31T00:39:07.122Z,10.99
2022-10-31T00:41:36.330Z,10.99
2022-10-31T00:44:07.368Z,11.11
2022-10-31T00:46:36.722Z,10.99
2022-10-31T00:49:06.095Z,11.03
2022-10-31T00:51:35.501Z,11.00
2022-10-31T00:54:04.803Z,10.95
2022-10-31T00:56:34.051Z,10.89
2022-10-31T00:59:03.579Z,10.80
2022-10-31T01:01:33.080Z,10.77
2022-10-31T01:04:03.268Z,10.75
2022-10-31T01:06:34.265Z,10.69
2022-10-31T01:09:03.570Z,10.63
2022-10-31T01:11:33.097Z,10.57
2022-10-31T01:14:04.075Z,10.52
2022-10-31T01:16:34.282Z,10.46
2022-10-31T01:19:03.635Z,10.43
2022-10-31T01:21:32.892Z,10.37
2022-10-31T01:24:05.295Z,10.33
2022-10-31T01:26:35.247Z,10.30
2022-10-31T01:29:09.343Z,10.25
2022-10-31T01:31:40.570Z,10.26
2022-10-31T01:34:10.182Z,10.22
2022-10-31T01:36:40.008Z,10.13
2022-10-31T01:39:12.543Z,10.08
2022-10-31T01:41:44.702Z,10.06
2022-10-31T01:44:20.100Z,10.06
2022-10-31T01:46:58.532Z,10.10
2022-10-31T01:49:45.905Z,10.05
2022-10-31T01:52:33.043Z,10.02
2022-10-31T01:55:07.451Z,10.00
2022-10-31T01:57:37.924Z,9.98
2022-10-31T02:00:09.999Z,9.94
2022-10-31T02:02:45.051Z,9.88
2022-10-31T02:05:17.081Z,9.85
2022-10-31T02:07:49.468Z,9.87
2022-10-31T02:10:19.167Z,9.85
2022-10-31T02:12:48.515Z,9.77
2022-10-31T02:15:18.033Z,9.69
2022-10-31T02:17:48.386Z,9.63
2022-10-31T02:20:20.305Z,9.69
2022-10-31T02:23:13.322Z,9.63
2022-10-31T02:26:18.051Z,9.58
2022-10-31T02:29:07.167Z,9.58
2022-10-31T02:31:54.449Z,9.58
2022-10-31T02:34:33.092Z,9.54
2022-10-31T02:37:14.668Z,9.53
2022-10-31T02:40:10.988Z,9.52
2022-10-31T02:43:03.824Z,9.52
2022-10-31T02:45:36.660Z,9.53
2022-10-31T02:48:07.495Z,9.56
2022-10-31T02:50:39.135Z,9.53
2022-10-31T02:53:08.615Z,9.46
2022-10-31T02:55:41.254Z,9.38
2022-10-31T02:58:16.570Z,9.33
2022-10-31T03:01:11.836Z,9.31
2022-10-31T03:03:47.271Z,9.32
2022-10-31T03:06:36.303Z,9.28
2022-10-31T03:09:26.896Z,9.28
2022-10-31T03:12:17.058Z,9.27
2022-10-31T03:14:52.157Z,9.27
2022-10-31T03:17:24.687Z,9.26
2022-10-31T03:19:54.264Z,9.28
2022-10-31T03:22:25.873Z,9.26
2022-10-31T03:24:56.156Z,9.04
2022-10-31T03:27:27.825Z,8.95
2022-10-31T03:29:59.657Z,8.94
2022-10-31T03:32:36.767Z,8.95
2022-10-31T03:35:08.124Z,8.98
2022-10-31T03:37:38.510Z,9.00
2022-10-31T03:40:10.983Z,9.00
2022-10-31T03:42:43.355Z,9.00
2022-10-31T03:45:17.825Z,9.00
2022-10-31T03:47:47.128Z,8.99
2022-10-31T03:50:18.308Z,9.01
2022-10-31T03:53:03.389Z,9.00
2022-10-31T03:55:35.802Z,8.98
2022-10-31T03:58:10.776Z,8.98
2022-10-31T04:00:42.406Z,8.99
2022-10-31T04:03:21.082Z,8.98
2022-10-31T04:05:53.198Z,8.95
2022-10-31T04:08:25.570Z,8.95
2022-10-31T04:10:56.383Z,8.97
2022-10-31T04:13:31.163Z,8.92
2022-10-31T04:16:02.130Z,8.86
2022-10-31T04:18:31.483Z,8.86
2022-10-31T04:21:06.107Z,8.86
2022-10-31T04:23:36.800Z,8.90
2022-10-31T04:26:07.809Z,8.86
2022-10-31T04:28:37.437Z,8.84
2022-10-31T04:31:07.891Z,8.86
2022-10-31T04:33:38.999Z,8.88
2022-10-31T04:36:08.869Z,8.86
2022-10-31T04:38:38.418Z,8.87
2022-10-31T04:41:09.330Z,8.71
2022-10-31T04:43:46.239Z,8.69
2022-10-31T04:46:15.707Z,8.66
2022-10-31T04:48:45.471Z,8.64
2022-10-31T04:51:14.949Z,8.67
2022-10-31T04:53:44.903Z,8.67
2022-10-31T04:56:34.158Z,8.66
2022-10-31T04:59:05.116Z,8.69
2022-10-31T05:01:36.241Z,8.63
2022-10-31T05:04:05.973Z,8.59
2022-10-31T05:06:35.263Z,8.63
2022-10-31T05:09:05.073Z,8.60
2022-10-31T05:11:34.336Z,8.58
2022-10-31T05:14:05.457Z,8.57
2022-10-31T05:16:36.533Z,8.56
2022-10-31T05:19:26.253Z,8.53
2022-10-31T05:22:00.304Z,8.50
2022-10-31T05:24:31.265Z,8.50
2022-10-31T05:27:00.677Z,8.48
2022-10-31T05:29:31.571Z,8.47
2022-10-31T05:32:01.365Z,8.47
2022-10-31T05:34:35.090Z,8.49
2022-10-31T05:37:09.152Z,8.48
2022-10-31T05:39:39.624Z,8.46
2022-10-31T05:42:10.575Z,8.48
2022-10-31T05:44:39.838Z,8.48
2022-10-31T05:47:16.958Z,8.49
2022-10-31T05:50:00.269Z,8.51
2022-10-31T05:52:51.464Z,8.58
2022-10-31T05:55:22.395Z,8.63
2022-10-31T05:57:53.993Z,8.67
2022-10-31T06:00:24.011Z,8.69
2022-10-31T06:03:01.744Z,8.69
2022-10-31T06:05:54.951Z,8.66
2022-10-31T06:08:22.609Z,8.69
2022-10-31T06:10:54.024Z,8.73
2022-10-31T06:13:26.203Z,8.81
2022-10-31T06:15:57.054Z,8.85
2022-10-31T06:18:27.955Z,8.87
2022-10-31T06:20:57.234Z,8.92
2022-10-31T06:23:26.898Z,8.95
2022-10-31T06:25:57.950Z,8.96
2022-10-31T06:28:27.503Z,9.01
2022-10-31T06:30:58.511Z,9.00
2022-10-31T06:33:28.165Z,9.02
2022-10-31T06:35:59.267Z,9.02
2022-10-31T06:38:29.435Z,9.04
2022-10-31T06:40:59.288Z,9.01
2022-10-31T06:43:29.624Z,9.00
2022-10-31T06:46:05.497Z,8.99
2022-10-31T06:48:36.581Z,8.98
2022-10-31T06:51:07.536Z,8.99
2022-10-31T06:53:36.769Z,8.97
2022-10-31T06:56:06.982Z,8.95
2022-10-31T06:58:37.995Z,8.96
2022-10-31T07:01:08.948Z,8.97
2022-10-31T07:03:38.297Z,8.98
2022-10-31T07:06:07.972Z,9.04
2022-10-31T07:08:37.366Z,9.07
2022-10-31T07:11:06.940Z,9.09
2022-10-31T07:13:36.559Z,9.13
2022-10-31T07:16:08.966Z,9.14
2022-10-31T07:18:38.624Z,9.15
2022-10-31T07:21:09.678Z,9.14
2022-10-31T07:23:38.999Z,9.09
2022-10-31T07:26:27.150Z,9.10
2022-10-31T07:28:56.540Z,9.14
2022-10-31T07:31:26.838Z,9.11
2022-10-31T07:33:57.803Z,9.26
2022-10-31T07:36:31.488Z,9.32
2022-10-31T07:39:03.310Z,9.33
2022-10-31T07:41:34.449Z,9.47
2022-10-31T07:44:04.785Z,9.56
2022-10-31T07:46:38.794Z,9.62
2022-10-31T07:49:12.824Z,9.72
2022-10-31T07:52:00.232Z,9.83
2022-10-31T07:54:47.379Z,9.95
2022-10-31T07:57:21.467Z,9.96
2022-10-31T07:59:49.511Z,10.15
2022-10-31T08:02:19.505Z,10.35
2022-10-31T08:04:57.185Z,10.43
2022-10-31T08:07:43.440Z,10.51
2022-10-31T08:10:14.430Z,10.56
2022-10-31T08:12:43.845Z,10.69
2022-10-31T08:15:13.385Z,10.78
2022-10-31T08:17:42.669Z,10.87
2022-10-31T08:20:12.681Z,10.98
2022-10-31T08:22:44.053Z,11.07
2022-10-31T08:25:14.036Z,11.12
2022-10-31T08:27:44.861Z,11.18
2022-10-31T08:30:16.082Z,11.22
2022-10-31T08:32:47.312Z,11.31
2022-10-31T08:35:35.156Z,11.43
2022-10-31T08:38:21.319Z,11.48
2022-10-31T08:40:51.809Z,11.59
2022-10-31T08:43:22.338Z,11.63
2022-10-31T08:45:54.115Z,11.74
2022-10-31T08:48:24.324Z,11.83
2022-10-31T08:50:55.819Z,11.84
2022-10-31T08:53:26.473Z,11.96
2022-10-31T08:55:58.453Z,12.01
2022-10-31T08:58:28.313Z,11.97
2022-10-31T09:01:01.294Z,12.10
2022-10-31T09:03:32.861Z,12.20
2022-10-31T09:06:04.336Z,12.24
2022-10-31T09:08:34.561Z,12.30
2022-10-31T09:11:04.382Z,12.36
2022-10-31T09:13:51.641Z,12.38
2022-10-31T09:16:37.489Z,12.47
2022-10-31T09:19:11.453Z,12.82
2022-10-31T09:21:38.898Z,12.96
2022-10-31T09:24:08.823Z,13.22
2022-10-31T09:26:38.222Z,13.18
2022-10-31T09:29:10.501Z,13.53
2022-10-31T09:31:44.953Z,13.93
2022-10-31T09:34:28.823Z,14.24
2022-10-31T09:36:59.936Z,14.01
2022-10-31T09:39:29.852Z,14.09
2022-10-31T09:42:24.751Z,14.19
2022-10-31T09:45:10.976Z,14.69
2022-10-31T09:47:58.579Z,15.19
2022-10-31T09:50:50.759Z,14.99
2022-10-31T09:53:50.512Z,14.75
2022-10-31T09:56:23.176Z,14.77
2022-10-31T09:58:56.627Z,14.73
2022-10-31T10:01:32.245Z,14.92
2022-10-31T10:04:04.871Z,14.98
2022-10-31T10:06:47.148Z,14.97
2022-10-31T10:09:33.167Z,14.93
2022-10-31T10:12:26.909Z,14.89
2022-10-31T10:15:19.767Z,14.79
2022-10-31T10:18:01.873Z,14.79
2022-10-31T10:20:53.233Z,14.66
2022-10-31T10:23:34.822Z,14.61
2022-10-31T10:26:11.360Z,14.55
2022-10-31T10:28:43.774Z,14.58
2022-10-31T10:31:19.414Z,14.64
2022-10-31T10:34:17.709Z,14.55
2022-10-31T10:36:55.986Z,14.61
2022-10-31T10:39:31.843Z,14.75
2022-10-31T10:42:19.855Z,14.87
2022-10-31T10:45:08.698Z,14.84
2022-10-31T10:47:43.910Z,14.88
2022-10-31T10:50:19.152Z,14.91
2022-10-31T10:52:51.537Z,14.69
2022-10-31T10:55:30.122Z,14.65
2022-10-31T10:58:10.101Z,14.75
2022-10-31T11:00:51.068Z,14.72
2022-10-31T11:03:20.585Z,14.71
2022-10-31T11:06:02.229Z,14.61
2022-10-31T11:08:36.694Z,14.57
2022-10-31T11:11:21.394Z,14.51
2022-10-31T11:13:52.058Z,14.48
2022-10-31T11:16:43.149Z,14.47
2022-10-31T11:19:18.640Z,14.51
2022-10-31T11:21:53.940Z,14.48
2022-10-31T11:24:22.269Z,14.56
2022-10-31T11:27:00.024Z,14.51
2022-10-31T11:29:29.369Z,14.55
2022-10-31T11:32:01.008Z,14.53
2022-10-31T11:34:42.513Z,14.56
2022-10-31T11:37:18.223Z,14.64
2022-10-31T11:39:52.273Z,14.68
2022-10-31T11:42:24.216Z,14.82
2022-10-31T11:44:55.686Z,14.99
2022-10-31T11:47:30.665Z,15.04
2022-10-31T11:50:03.345Z,15.21
2022-10-31T11:52:32.538Z,15.47
2022-10-31T11:55:05.096Z,15.44
2022-10-31T11:57:34.356Z,15.68
2022-10-31T12:00:06.077Z,15.93
2022-10-31T12:02:40.684Z,15.73
2022-10-31T12:05:26.057Z,15.85
2022-10-31T12:07:59.243Z,15.82
2022-10-31T12:10:29.574Z,15.86
2022-10-31T12:13:06.100Z,15.88
2022-10-31T12:15:37.656Z,16.05
2022-10-31T12:18:26.592Z,16.09
2022-10-31T12:21:01.902Z,15.95
2022-10-31T12:23:34.301Z,15.87
2022-10-31T12:26:09.491Z,15.67
2022-10-31T12:29:05.930Z,15.62
2022-10-31T12:31:44.256Z,15.51
2022-10-31T12:34:49.178Z,15.37
2022-10-31T12:37:49.992Z,15.12
2022-10-31T12:40:43.366Z,15.34
2022-10-31T12:43:38.401Z,15.49
2022-10-31T12:46:27.060Z,15.34
2022-10-31T12:49:25.329Z,15.27
2022-10-31T12:51:57.739Z,15.21
2022-10-31T12:54:51.482Z,15.24
2022-10-31T12:57:38.946Z,15.23
2022-10-31T13:00:19.342Z,15.28
2022-10-31T13:02:56.560Z,15.30
2022-10-31T13:05:37.542Z,15.32
2022-10-31T13:08:12.889Z,15.36
2022-10-31T13:10:50.442Z,15.51
2022-10-31T13:13:28.698Z,15.57
2022-10-31T13:16:04.056Z,15.56
2022-10-31T13:18:39.100Z,15.65
2022-10-31T13:21:10.748Z,15.62
2022-10-31T13:23:51.040Z,15.62
2022-10-31T13:26:15.827Z,15.64
2022-10-31T13:28:51.402Z,15.72
2022-10-31T13:31:21.158Z,15.67
2022-10-31T13:33:55.494Z,15.76
2022-10-31T13:36:37.359Z,15.69
2022-10-31T13:39:26.486Z,15.71
2022-10-31T13:41:59.284Z,15.74
2022-10-31T13:44:37.398Z,15.72
2022-10-31T13:47:02.868Z,15.67
2022-10-31T13:49:35.493Z,15.70
2022-10-31T13:52:14.659Z,15.69
2022-10-31T13:54:46.722Z,15.70
2022-10-31T13:57:21.580Z,15.70
2022-10-31T14:00:06.292Z,15.63
2022-10-31T14:02:38.335Z,15.64
2022-10-31T14:05:22.848Z,15.57
2022-10-31T14:07:53.288Z,15.62
2022-10-31T14:10:34.689Z,15.64
2022-10-31T14:13:19.418Z,15.62
2022-10-31T14:16:01.022Z,15.56
2022-10-31T14:18:35.645Z,15.54
2022-10-31T14:21:26.313Z,15.62
2022-10-31T14:23:56.103Z,15.58
2022-10-31T14:26:32.016Z,15.63
2022-10-31T14:29:04.290Z,15.66
2022-10-31T14:31:41.575Z,15.75
2022-10-31T14:34:20.373Z,15.73
2022-10-31T14:37:08.887Z,15.74
2022-10-31T14:39:44.666Z,15.79
2022-10-31T14:42:26.033Z,15.77
2022-10-31T14:45:01.590Z,15.78
2022-10-31T14:47:36.615Z,15.84
2022-10-31T14:50:27.967Z,15.90
2022-10-31T14:52:59.592Z,15.96
2022-10-31T14:55:29.152Z,16.06
2022-10-31T14:58:01.792Z,16.06
2022-10-31T15:00:30.642Z,16.09
2022-10-31T15:03:05.905Z,16.04
2022-10-31T15:05:37.313Z,15.93
2022-10-31T15:08:09.280Z,15.84
2022-10-31T15:10:40.561Z,15.78
2022-10-31T15:13:18.516Z,15.73
2022-10-31T15:15:52.176Z,15.63
2022-10-31T15:18:22.617Z,15.52
2022-10-31T15:20:51.366Z,15.56
2022-10-31T15:23:34.160Z,15.45
2022-10-31T15:26:06.118Z,15.41
2022-10-31T15:28:35.704Z,15.25
2022-10-31T15:31:05.289Z,15.18
2022-10-31T15:33:47.961Z,15.10
2022-10-31T15:36:29.258Z,15.09
2022-10-31T15:38:59.155Z,14.96
2022-10-31T15:41:41.149Z,14.91
2022-10-31T15:44:16.136Z,14.82
2022-10-31T15:46:45.734Z,14.81
2022-10-31T15:49:20.833Z,14.81
2022-10-31T15:51:54.124Z,14.77
2022-10-31T15:54:21.684Z,14.73
2022-10-31T15:56:51.337Z,14.71
2022-10-31T15:59:25.563Z,14.67
2022-10-31T16:02:03.448Z,14.60
2022-10-31T16:04:32.934Z,14.53
2022-10-31T16:07:04.572Z,14.47
2022-10-31T16:09:33.861Z,14.43
2022-10-31T16:12:03.149Z,14.42
2022-10-31T16:14:34.796Z,14.29
2022-10-31T16:17:04.080Z,14.28
2022-10-31T16:19:38.424Z,14.15
2022-10-31T16:22:13.260Z,14.13
2022-10-31T16:24:47.395Z,14.08
2022-10-31T16:27:26.648Z,14.06
2022-10-31T16:29:57.295Z,14.02
2022-10-31T16:32:38.851Z,13.96
2022-10-31T16:35:14.442Z,13.86
2022-10-31T16:37:44.015Z,13.80
2022-10-31T16:40:14.512Z,13.75
2022-10-31T16:42:44.514Z,13.71
2022-10-31T16:45:25.785Z,13.65
2022-10-31T16:47:55.025Z,13.64
2022-10-31T16:50:27.081Z,13.66
2022-10-31T16:55:27.671Z,13.53
2022-10-31T16:57:58.396Z,13.49
2022-10-31T17:00:29.336Z,13.43
2022-10-31T17:02:59.082Z,13.36
2022-10-31T17:05:30.358Z,13.35
2022-10-31T17:08:00.767Z,13.32
2022-10-31T17:10:30.488Z,13.25
2022-10-31T17:13:00.356Z,13.20
2022-10-31T17:15:30.808Z,13.19
2022-10-31T17:18:00.751Z,13.18
2022-10-31T17:20:31.905Z,13.14
2022-10-31T17:23:01.734Z,13.09
2022-10-31T17:25:32.232Z,13.07
2022-10-31T17:28:01.618Z,13.07
2022-10-31T17:30:31.370Z,13.10
2022-10-31T17:33:01.314Z,13.07
2022-10-31T17:35:30.988Z,13.06
2022-10-31T17:38:00.528Z,13.06
2022-10-31T17:40:29.901Z,12.98
2022-10-31T17:42:59.966Z,12.95
2022-10-31T17:45:29.525Z,12.93
2022-10-31T17:47:58.846Z,12.96
2022-10-31T17:50:28.849Z,12.93
2022-10-31T17:52:59.853Z,12.92
2022-10-31T17:55:34.384Z,12.87
2022-10-31T17:58:00.687Z,12.88
2022-10-31T18:00:29.908Z,12.87
2022-10-31T18:02:59.833Z,12.79
2022-10-31T18:05:29.421Z,12.79
2022-10-31T18:08:03.817Z,12.76
2022-10-31T18:10:31.043Z,12.73
2022-10-31T18:13:00.811Z,12.73
2022-10-31T18:15:30.415Z,12.73
2022-10-31T18:18:00.181Z,12.72
2022-10-31T18:20:29.815Z,12.75
2022-10-31T18:22:59.078Z,12.77
2022-10-31T18:25:28.592Z,12.80
2022-10-31T18:27:58.993Z,12.78
2022-10-31T18:30:28.682Z,12.78
2022-10-31T18:32:57.972Z,12.75
2022-10-31T18:35:27.208Z,12.75
2022-10-31T18:37:59.278Z,12.81
2022-10-31T18:40:27.519Z,12.95
2022-10-31T18:42:56.798Z,12.94
2022-10-31T18:45:45.963Z,12.94
2022-10-31T18:47:57.541Z,12.86
2022-10-31T18:50:27.107Z,12.89
2022-10-31T18:52:56.511Z,12.83
2022-10-31T18:55:25.911Z,12.84
2022-10-31T18:57:55.258Z,12.85
2022-10-31T19:00:24.659Z,12.98
2022-10-31T19:02:56.480Z,12.96
2022-10-31T19:05:24.961Z,13.02
2022-10-31T19:07:54.338Z,13.02
2022-10-31T19:10:23.661Z,13.03
2022-10-31T19:12:53.196Z,13.13
2022-10-31T19:15:22.477Z,13.13
2022-10-31T19:17:52.022Z,13.22
2022-10-31T19:20:21.374Z,13.12
2022-10-31T19:22:50.972Z,13.22
2022-10-31T19:25:20.407Z,13.20
2022-10-31T19:27:50.196Z,13.28
2022-10-31T19:30:21.381Z,13.28
2022-10-31T19:32:52.440Z,13.19
2022-10-31T19:35:21.838Z,13.11
2022-10-31T19:37:51.179Z,13.22
2022-10-31T19:40:20.994Z,13.22
2022-10-31T19:46:01.384Z,13.40
2022-10-31T19:48:31.469Z,13.34
2022-10-31T19:51:04.979Z,13.39
2022-10-31T19:53:34.898Z,13.41
2022-10-31T19:56:04.622Z,13.37
2022-10-31T19:58:34.322Z,13.30
2022-10-31T20:01:11.634Z,13.29
2022-10-31T20:03:42.591Z,13.22
2022-10-31T20:06:26.729Z,13.28
2022-10-31T20:08:57.473Z,13.33
2022-10-31T20:11:28.549Z,13.37
2022-10-31T20:13:59.148Z,13.34
2022-10-31T20:16:29.320Z,13.40
2022-10-31T20:18:59.822Z,13.43
2022-10-31T20:21:31.039Z,13.45
2022-10-31T20:24:02.084Z,13.54
2022-10-31T20:26:32.900Z,13.42
2022-10-31T20:29:03.335Z,13.51
2022-10-31T20:31:35.377Z,13.49
2022-10-31T20:34:05.036Z,13.48
2022-10-31T20:36:34.711Z,13.42
2022-10-31T20:39:04.795Z,13.34
2022-10-31T20:41:35.894Z,13.34
2022-10-31T20:44:05.353Z,13.38
2022-10-31T20:46:34.773Z,13.36
2022-10-31T20:49:04.261Z,13.30
2022-10-31T20:51:33.742Z,13.27
2022-10-31T20:54:03.163Z,13.27
2022-10-31T20:56:32.453Z,13.28
2022-10-31T20:59:01.854Z,13.22
2022-10-31T21:01:33.658Z,13.24
2022-10-31T21:04:04.965Z,13.13
2022-10-31T21:06:34.419Z,13.05
2022-10-31T21:09:03.943Z,13.01
2022-10-31T21:11:34.937Z,13.03
2022-10-31T21:14:04.630Z,12.93
2022-10-31T21:16:36.336Z,13.04
2022-10-31T21:19:06.297Z,13.05
2022-10-31T21:21:37.136Z,12.95
2022-10-31T21:24:09.488Z,12.91
2022-10-31T21:26:41.672Z,12.88
2022-10-31T21:29:11.903Z,12.98
2022-10-31T21:31:41.661Z,13.04
2022-10-31T21:34:11.462Z,13.09
2022-10-31T21:36:40.759Z,13.10
2022-10-31T21:39:11.659Z,13.09
2022-10-31T21:41:40.948Z,13.14
2022-10-31T21:44:10.262Z,13.29
2022-10-31T21:46:40.025Z,13.27
2022-10-31T21:49:11.149Z,13.40
2022-10-31T21:51:42.381Z,13.42
2022-10-31T21:54:30.006Z,13.49
2022-10-31T21:57:00.675Z,13.55
2022-10-31T21:59:30.584Z,13.61
2022-10-31T22:02:01.062Z,13.65
2022-10-31T22:04:30.391Z,13.56
2022-10-31T22:06:59.981Z,13.56
2022-10-31T22:09:29.294Z,13.47
2022-10-31T22:11:59.814Z,13.33
2022-10-31T22:14:29.236Z,13.24
2022-10-31T22:16:58.525Z,13.24
2022-10-31T22:19:27.784Z,13.19
2022-10-31T22:21:57.348Z,13.10
2022-10-31T22:24:26.570Z,13.11
2022-10-31T22:26:55.796Z,13.15
2022-10-31T22:29:26.679Z,13.13
2022-10-31T22:31:59.522Z,13.11
2022-10-31T22:34:27.109Z,13.18
2022-10-31T22:36:56.685Z,13.30
2022-10-31T22:39:26.101Z,13.27
2022-10-31T22:41:55.319Z,13.33
2022-10-31T22:44:24.726Z,13.28
2022-10-31T22:46:54.017Z,13.28
2022-10-31T22:49:23.489Z,13.27
2022-10-31T22:51:52.819Z,13.25
2022-10-31T22:54:22.205Z,13.23
2022-10-31T22:56:51.443Z,13.21
2022-10-31T22:59:20.767Z,13.19
2022-10-31T23:01:50.164Z,13.16
2022-10-31T23:04:19.625Z,13.19
2022-10-31T23:06:49.129Z,13.22
2022-10-31T23:09:18.741Z,13.22
2022-10-31T23:11:47.962Z,13.31
2022-10-31T23:14:21.000Z,13.34
2022-10-31T23:16:56.023Z,13.24
2022-10-31T23:19:30.413Z,13.24
2022-10-31T23:22:03.947Z,13.24
2022-10-31T23:24:38.605Z,13.30
2022-10-31T23:27:23.037Z,13.24
2022-10-31T23:29:54.481Z,13.30
2022-10-31T23:32:33.727Z,13.41
2022-10-31T23:35:05.858Z,13.38
2022-10-31T23:37:37.095Z,13.48
2022-10-31T23:40:08.535Z,13.53
2022-10-31T23:42:37.949Z,13.55
2022-10-31T23:45:08.131Z,13.64
2022-10-31T23:47:42.429Z,13.62
2022-10-31T23:50:09.440Z,13.67
2022-10-31T23:52:38.798Z,13.66
2022-10-31T23:55:08.715Z,13.65
2022-10-31T23:57:37.952Z,13.83
